Time;durP1;ratioP1;P1;durP2;ratioP2;P2;SDS_P1;SDS_P2;PMS_P1;PMS_P2;Temp;Humidity;BMP_temperature;BMP_pressure;BME280_temperature;BME280_humidity;BME280_pressure;Samples;Min_cycle;Max_cycle;Signal;HPM_P1;HPM_P2
2023/06/26 00:01:31;;;;;;;13.80;10.52;;;;;;;;;;5090074;28;20066;-76
2023/06/26 00:03:57;;;;;;;10.93;9.52;;;;;;;;;;5091949;28;20032;-74
2023/06/26 00:06:25;;;;;;;11.75;10.48;;;;;;;;;;5090263;28;20374;-73
2023/06/26 00:08:52;;;;;;;12.25;10.15;;;;;;;;;;5092013;28;20397;-76
2023/06/26 00:11:18;;;;;;;12.52;9.93;;;;;;;;;;5089856;28;20386;-76
2023/06/26 00:13:45;;;;;;;12.50;10.20;;;;;;;;;;5073731;28;20045;-76
2023/06/26 00:16:11;;;;;;;11.45;10.10;;;;;;;;;;5074071;28;20446;-77
2023/06/26 00:18:37;;;;;;;11.52;10.18;;;;;;;;;;5090133;28;20032;-77
2023/06/26 00:21:03;;;;;;;12.90;9.57;;;;;;;;;;5090635;28;20051;-78
2023/06/26 00:23:30;;;;;;;10.77;9.38;;;;;;;;;;5090063;28;20039;-78
2023/06/26 00:25:57;;;;;;;12.40;10.13;;;;;;;;;;5090740;28;20453;-77
2023/06/26 00:28:23;;;;;;;10.68;9.50;;;;;;;;;;5090003;28;20044;-77
2023/06/26 00:30:49;;;;;;;14.30;9.82;;;;;;;;;;5056711;28;20093;-77
2023/06/26 00:33:15;;;;;;;12.73;9.70;;;;;;;;;;5090353;28;20501;-76
2023/06/26 00:35:41;;;;;;;12.48;9.60;;;;;;;;;;5090317;28;20033;-77
2023/06/26 00:38:07;;;;;;;10.98;9.82;;;;;;;;;;5090448;28;20040;-77
2023/06/26 00:40:33;;;;;;;10.70;9.63;;;;;;;;;;5093072;28;20048;-77
2023/06/26 00:42:59;;;;;;;11.40;10.05;;;;;;;;;;5095240;28;20480;-74
2023/06/26 00:45:25;;;;;;;13.48;9.73;;;;;;;;;;5093381;28;20093;-74
2023/06/26 00:47:52;;;;;;;13.32;10.15;;;;;;;;;;5095016;28;20036;-74
2023/06/26 00:50:18;;;;;;;13.18;10.18;;;;;;;;;;5093129;28;20056;-74
2023/06/26 00:52:44;;;;;;;13.00;10.13;;;;;;;;;;5093425;28;20055;-77
2023/06/26 00:55:10;;;;;;;11.48;10.07;;;;;;;;;;5093782;28;20055;-78
2023/06/26 00:57:36;;;;;;;17.40;10.95;;;;;;;;;;5094868;28;20442;-78
2023/06/26 01:00:03;;;;;;;13.20;10.65;;;;;;;;;;5076956;28;20032;-77
2023/06/26 01:02:33;;;;;;;13.90;11.32;;;;;;;;;;5093123;28;20127;-78
2023/06/26 01:05:00;;;;;;;14.75;11.15;;;;;;;;;;5093731;28;20431;-77
2023/06/26 01:07:26;;;;;;;12.80;10.30;;;;;;;;;;5076151;28;20044;-77
2023/06/26 01:09:52;;;;;;;11.57;10.15;;;;;;;;;;5074933;28;20127;-75
2023/06/26 01:12:18;;;;;;;12.25;10.43;;;;;;;;;;5093095;28;20058;-75
2023/06/26 01:14:45;;;;;;;14.75;11.07;;;;;;;;;;5093226;28;20090;-74
2023/06/26 01:17:15;;;;;;;13.57;10.98;;;;;;;;;;5094487;28;20039;-75
2023/06/26 01:19:41;;;;;;;15.57;11.10;;;;;;;;;;5093010;28;20044;-74
2023/06/26 01:22:20;;;;;;;14.00;10.82;;;;;;;;;;5092740;28;20071;-77
2023/06/26 01:24:54;;;;;;;12.15;10.85;;;;;;;;;;5093410;28;20573;-77
2023/06/26 01:27:22;;;;;;;12.68;11.38;;;;;;;;;;5093106;28;20544;-77
2023/06/26 01:29:49;;;;;;;16.27;12.20;;;;;;;;;;5093072;28;20087;-75
2023/06/26 01:32:15;;;;;;;13.63;11.93;;;;;;;;;;5076112;28;20070;-75
2023/06/26 01:34:41;;;;;;;14.32;11.55;;;;;;;;;;5092589;28;20047;-77
2023/06/26 01:37:07;;;;;;;14.60;11.52;;;;;;;;;;5076183;28;20515;-77
2023/06/26 01:39:33;;;;;;;13.93;12.35;;;;;;;;;;5092836;28;20484;-77
2023/06/26 01:42:00;;;;;;;12.68;11.35;;;;;;;;;;5093008;28;20423;-77
2023/06/26 01:44:30;;;;;;;15.82;12.40;;;;;;;;;;5092536;28;20492;-77
2023/06/26 01:46:56;;;;;;;13.77;12.20;;;;;;;;;;5092642;28;20070;-77
2023/06/26 01:49:26;;;;;;;15.27;12.07;;;;;;;;;;5092380;28;20441;-77
2023/06/26 01:51:56;;;;;;;13.45;11.30;;;;;;;;;;5092603;28;20067;-77
2023/06/26 01:54:24;;;;;;;13.68;11.70;;;;;;;;;;5092397;28;20070;-77
2023/06/26 01:56:51;;;;;;;13.50;12.10;;;;;;;;;;5075556;28;20036;-77
2023/06/26 01:59:18;;;;;;;13.68;11.57;;;;;;;;;;5093695;28;20082;-77
2023/06/26 02:01:44;;;;;;;14.18;12.68;;;;;;;;;;5090130;28;20530;-77
2023/06/26 02:04:10;;;;;;;13.75;11.77;;;;;;;;;;5093280;28;20044;-77
2023/06/26 02:06:37;;;;;;;13.80;12.30;;;;;;;;;;5090893;28;20473;-77
2023/06/26 02:09:03;;;;;;;13.20;11.77;;;;;;;;;;5092199;28;20115;-77
2023/06/26 02:11:29;;;;;;;14.52;12.73;;;;;;;;;;5061691;28;20469;-77
2023/06/26 02:13:55;;;;;;;13.65;11.88;;;;;;;;;;5092203;28;20074;-77
2023/06/26 02:16:21;;;;;;;14.85;12.20;;;;;;;;;;5092968;28;20055;-77
2023/06/26 02:18:48;;;;;;;14.88;11.85;;;;;;;;;;5091838;28;20040;-77
2023/06/26 02:21:14;;;;;;;13.75;12.05;;;;;;;;;;5075335;28;20040;-77
2023/06/26 02:23:40;;;;;;;13.23;11.75;;;;;;;;;;5092106;28;20528;-77
2023/06/26 02:26:06;;;;;;;14.95;12.15;;;;;;;;;;5075359;28;20491;-74
2023/06/26 02:28:34;;;;;;;14.25;11.40;;;;;;;;;;5074854;28;20063;-74
2023/06/26 02:31:00;;;;;;;16.23;11.00;;;;;;;;;;5091930;28;20044;-74
2023/06/26 02:33:26;;;;;;;14.05;11.27;;;;;;;;;;5091737;28;20041;-74
2023/06/26 02:35:52;;;;;;;13.75;10.50;;;;;;;;;;5092975;28;20032;-74
2023/06/26 02:38:19;;;;;;;14.55;10.63;;;;;;;;;;5093319;28;20036;-74
2023/06/26 02:40:45;;;;;;;12.82;10.43;;;;;;;;;;5091570;28;20051;-77
2023/06/26 02:43:11;;;;;;;13.70;10.23;;;;;;;;;;5075354;28;20135;-77
2023/06/26 02:45:37;;;;;;;12.45;9.98;;;;;;;;;;5091442;28;20035;-76
2023/06/26 02:48:03;;;;;;;12.63;9.50;;;;;;;;;;5074782;28;20043;-76
2023/06/26 02:50:29;;;;;;;12.90;9.52;;;;;;;;;;5074413;28;20040;-76
2023/06/26 02:52:55;;;;;;;12.32;9.55;;;;;;;;;;5091237;28;20082;-76
2023/06/26 02:55:21;;;;;;;13.00;9.85;;;;;;;;;;5091555;28;20036;-76
2023/06/26 02:57:47;;;;;;;12.57;9.85;;;;;;;;;;5091028;28;20032;-76
2023/06/26 03:00:14;;;;;;;13.52;9.68;;;;;;;;;;5074924;28;20050;-76
2023/06/26 03:02:40;;;;;;;10.32;8.68;;;;;;;;;;5090369;28;20043;-76
2023/06/26 03:05:06;;;;;;;13.38;9.57;;;;;;;;;;5092619;28;20047;-76
2023/06/26 03:07:32;;;;;;;12.90;9.45;;;;;;;;;;5091662;28;20431;-76
2023/06/26 03:09:59;;;;;;;13.13;9.38;;;;;;;;;;5091166;28;20035;-76
2023/06/26 03:12:25;;;;;;;12.13;9.85;;;;;;;;;;5091542;28;20050;-76
2023/06/26 03:14:51;;;;;;;14.63;9.10;;;;;;;;;;5074187;28;20405;-76
2023/06/26 03:17:17;;;;;;;12.25;8.30;;;;;;;;;;5091323;28;20416;-77
2023/06/26 03:19:44;;;;;;;13.45;8.98;;;;;;;;;;5074034;28;20048;-77
2023/06/26 03:22:11;;;;;;;12.55;7.53;;;;;;;;;;5084798;28;20045;-76
2023/06/26 03:24:37;;;;;;;10.32;7.03;;;;;;;;;;5083057;28;20477;-73
2023/06/26 03:27:03;;;;;;;10.75;7.50;;;;;;;;;;5091118;28;20386;-74
2023/06/26 03:29:29;;;;;;;11.18;6.90;;;;;;;;;;5074126;28;20047;-73
2023/06/26 03:31:56;;;;;;;10.18;6.50;;;;;;;;;;5090678;28;20192;-74
2023/06/26 03:34:22;;;;;;;10.63;7.00;;;;;;;;;;5092113;28;20085;-74
2023/06/26 03:36:48;;;;;;;13.32;6.45;;;;;;;;;;5090642;28;20401;-75
2023/06/26 03:39:14;;;;;;;15.35;7.25;;;;;;;;;;5091123;28;20435;-74
2023/06/26 03:41:40;;;;;;;10.90;7.05;;;;;;;;;;5090391;28;20048;-74
2023/06/26 03:44:06;;;;;;;13.80;7.15;;;;;;;;;;5090455;28;20040;-77
2023/06/26 03:46:32;;;;;;;10.05;6.65;;;;;;;;;;5091115;28;20040;-78
2023/06/26 03:48:58;;;;;;;10.65;6.45;;;;;;;;;;5090187;28;20444;-76
2023/06/26 03:51:25;;;;;;;14.98;6.57;;;;;;;;;;5090800;28;20052;-75
2023/06/26 03:53:51;;;;;;;12.35;7.10;;;;;;;;;;5090055;28;20048;-74
2023/06/26 03:56:17;;;;;;;14.85;7.32;;;;;;;;;;5092106;28;20076;-74
2023/06/26 03:58:43;;;;;;;13.35;6.75;;;;;;;;;;5090324;28;20066;-75
2023/06/26 04:01:09;;;;;;;13.38;7.32;;;;;;;;;;5087086;28;20045;-74
2023/06/26 04:03:35;;;;;;;13.40;7.43;;;;;;;;;;5087905;28;20519;-75
2023/06/26 04:06:01;;;;;;;12.45;7.07;;;;;;;;;;5072334;28;20040;-75
2023/06/26 04:08:27;;;;;;;17.92;7.72;;;;;;;;;;5073794;28;20476;-75
2023/06/26 04:10:55;;;;;;;13.43;7.55;;;;;;;;;;5089945;28;20040;-76
2023/06/26 04:13:21;;;;;;;12.32;7.10;;;;;;;;;;5090335;28;20055;-77
2023/06/26 04:15:47;;;;;;;15.65;7.75;;;;;;;;;;5093985;28;20507;-77
2023/06/26 04:18:13;;;;;;;14.40;7.25;;;;;;;;;;5094286;28;20040;-77
2023/06/26 04:20:40;;;;;;;13.10;7.10;;;;;;;;;;5094738;28;20489;-78
2023/06/26 04:23:06;;;;;;;14.73;7.00;;;;;;;;;;5094159;28;20043;-77
2023/06/26 04:25:32;;;;;;;17.17;8.05;;;;;;;;;;5094505;28;20441;-77
2023/06/26 04:27:58;;;;;;;16.58;8.10;;;;;;;;;;5093887;28;20124;-77
2023/06/26 04:30:24;;;;;;;20.42;8.05;;;;;;;;;;5094189;28;20044;-77
2023/06/26 04:32:50;;;;;;;14.50;6.97;;;;;;;;;;5077055;28;20082;-76
2023/06/26 04:35:17;;;;;;;18.70;8.38;;;;;;;;;;5094293;28;20081;-76
2023/06/26 04:37:43;;;;;;;17.58;8.20;;;;;;;;;;5077269;28;20089;-79
2023/06/26 04:40:11;;;;;;;14.07;7.43;;;;;;;;;;5095074;28;20048;-77
2023/06/26 04:42:37;;;;;;;17.15;7.70;;;;;;;;;;5077245;28;20063;-77
2023/06/26 04:45:03;;;;;;;17.23;7.85;;;;;;;;;;5093480;28;20123;-78
2023/06/26 04:47:29;;;;;;;20.48;7.82;;;;;;;;;;5077097;28;20037;-74
2023/06/26 04:49:55;;;;;;;14.65;7.00;;;;;;;;;;5093167;28;20104;-74
2023/06/26 04:52:21;;;;;;;14.65;7.00;;;;;;;;;;5093771;28;20048;-74
2023/06/26 04:54:47;;;;;;;12.63;7.68;;;;;;;;;;5094480;28;20032;-73
2023/06/26 04:57:14;;;;;;;12.73;6.50;;;;;;;;;;5095233;28;20070;-77
2023/06/26 04:59:40;;;;;;;13.60;6.70;;;;;;;;;;5094997;28;20077;-77
2023/06/26 05:02:06;;;;;;;13.18;6.55;;;;;;;;;;5093652;28;20436;-77
2023/06/26 05:04:33;;;;;;;46.95;8.40;;;;;;;;;;5094601;28;20502;-77
2023/06/26 05:06:59;;;;;;;16.83;6.95;;;;;;;;;;5093571;28;20035;-77
2023/06/26 05:09:25;;;;;;;12.80;6.90;;;;;;;;;;5076785;28;20384;-78
2023/06/26 05:11:51;;;;;;;29.58;6.10;;;;;;;;;;5094480;28;20457;-78
2023/06/26 05:14:17;;;;;;;10.10;4.20;;;;;;;;;;5093131;28;20123;-79
2023/06/26 05:16:43;;;;;;;15.55;3.70;;;;;;;;;;5094828;28;20036;-77
2023/06/26 05:19:09;;;;;;;13.43;3.72;;;;;;;;;;5076397;28;20119;-78
2023/06/26 05:21:35;;;;;;;9.60;3.33;;;;;;;;;;5093444;28;20097;-79
2023/06/26 05:24:03;;;;;;;8.10;2.80;;;;;;;;;;5076112;28;20115;-77
2023/06/26 05:26:29;;;;;;;6.03;2.60;;;;;;;;;;5094029;28;20036;-77
2023/06/26 05:28:55;;;;;;;8.13;3.03;;;;;;;;;;5092689;28;20068;-79
2023/06/26 05:31:22;;;;;;;10.30;2.60;;;;;;;;;;5094508;28;20480;-78
2023/06/26 05:33:50;;;;;;;6.35;2.70;;;;;;;;;;5092964;28;20032;-78
2023/06/26 05:36:17;;;;;;;7.95;2.47;;;;;;;;;;5076284;28;20036;-77
2023/06/26 05:38:43;;;;;;;6.40;2.65;;;;;;;;;;5092807;28;20032;-77
2023/06/26 05:41:09;;;;;;;6.80;2.20;;;;;;;;;;5092515;28;20067;-78
2023/06/26 05:43:38;;;;;;;5.63;2.15;;;;;;;;;;5094080;28;20040;-78
2023/06/26 05:46:04;;;;;;;5.25;2.20;;;;;;;;;;5092621;28;20162;-78
2023/06/26 05:48:30;;;;;;;8.45;2.13;;;;;;;;;;5092599;28;20052;-78
2023/06/26 05:50:56;;;;;;;5.32;2.00;;;;;;;;;;5075317;28;20119;-78
2023/06/26 05:53:22;;;;;;;9.25;2.13;;;;;;;;;;5076207;28;20595;-78
2023/06/26 05:55:49;;;;;;;6.22;2.03;;;;;;;;;;5092531;28;20036;-77
2023/06/26 05:58:15;;;;;;;6.55;2.17;;;;;;;;;;5092770;28;20477;-77
2023/06/26 06:00:41;;;;;;;8.32;2.03;;;;;;;;;;5092324;28;20104;-79
2023/06/26 06:03:07;;;;;;;10.70;2.03;;;;;;;;;;5092350;28;20109;-78
2023/06/26 06:05:33;;;;;;;6.70;2.05;;;;;;;;;;5092607;28;20044;-78
2023/06/26 06:07:59;;;;;;;4.93;1.85;;;;;;;;;;5092155;28;20481;-78
2023/06/26 06:10:26;;;;;;;4.78;1.70;;;;;;;;;;5093688;28;20475;-78
2023/06/26 06:12:52;;;;;;;9.32;2.67;;;;;;;;;;5093485;28;20036;-80
2023/06/26 06:15:18;;;;;;;6.82;2.13;;;;;;;;;;5092107;28;20040;-78
2023/06/26 06:17:44;;;;;;;6.55;2.22;;;;;;;;;;5092152;28;20032;-79
2023/06/26 06:20:10;;;;;;;5.32;2.08;;;;;;;;;;5091908;28;20105;-78
2023/06/26 06:22:36;;;;;;;4.97;2.10;;;;;;;;;;5093375;28;20036;-77
2023/06/26 06:25:02;;;;;;;10.98;2.10;;;;;;;;;;5074781;28;20397;-79
2023/06/26 06:27:28;;;;;;;8.70;2.13;;;;;;;;;;5075440;28;20495;-79
2023/06/26 06:29:55;;;;;;;5.65;1.80;;;;;;;;;;5091847;28;20044;-79
2023/06/26 06:32:21;;;;;;;19.80;2.58;;;;;;;;;;5091821;28;20553;-79
2023/06/26 06:34:47;;;;;;;6.22;1.83;;;;;;;;;;5091944;28;20071;-78
2023/06/26 06:37:14;;;;;;;9.57;1.83;;;;;;;;;;5090496;28;20044;-78
2023/06/26 06:39:40;;;;;;;3.05;1.55;;;;;;;;;;5091731;28;20059;-78
2023/06/26 06:42:06;;;;;;;9.85;2.03;;;;;;;;;;5092554;28;20078;-79
2023/06/26 06:44:32;;;;;;;6.38;1.70;;;;;;;;;;5091963;28;20511;-78
2023/06/26 06:47:01;;;;;;;8.80;1.63;;;;;;;;;;5091852;28;20492;-79
2023/06/26 06:49:27;;;;;;;13.25;2.20;;;;;;;;;;5091304;28;20048;-74
2023/06/26 06:51:53;;;;;;;4.85;1.55;;;;;;;;;;5091469;28;20087;-79
2023/06/26 06:54:19;;;;;;;3.95;1.50;;;;;;;;;;5092289;28;20477;-80
2023/06/26 06:56:45;;;;;;;7.32;1.80;;;;;;;;;;5091660;28;20366;-78
2023/06/26 06:59:11;;;;;;;7.32;1.70;;;;;;;;;;5092265;28;20044;-78
2023/06/26 07:01:37;;;;;;;6.25;1.60;;;;;;;;;;5092697;28;20602;-77
2023/06/26 07:04:04;;;;;;;5.22;1.50;;;;;;;;;;5091058;28;20131;-78
2023/06/26 07:06:30;;;;;;;12.70;1.80;;;;;;;;;;5091115;28;20115;-78
2023/06/26 07:08:56;;;;;;;4.15;1.40;;;;;;;;;;5091579;28;20105;-78
2023/06/26 07:11:22;;;;;;;5.53;1.52;;;;;;;;;;5090629;28;20520;-78
2023/06/26 07:13:48;;;;;;;9.65;1.52;;;;;;;;;;5092516;28;20075;-78
2023/06/26 07:16:14;;;;;;;5.80;1.50;;;;;;;;;;5090548;28;20042;-78
2023/06/26 07:18:41;;;;;;;7.35;1.70;;;;;;;;;;5091466;28;20048;-74
2023/06/26 07:21:07;;;;;;;8.35;1.55;;;;;;;;;;5091051;28;20106;-74
2023/06/26 07:23:33;;;;;;;5.82;1.65;;;;;;;;;;5074109;28;20043;-74
2023/06/26 07:25:59;;;;;;;8.88;2.25;;;;;;;;;;5092282;28;20053;-77
2023/06/26 07:28:25;;;;;;;5.10;1.73;;;;;;;;;;5073683;28;20071;-77
2023/06/26 07:30:51;;;;;;;3.60;1.60;;;;;;;;;;5091005;28;20032;-74
2023/06/26 07:33:18;;;;;;;6.47;1.50;;;;;;;;;;5090660;28;20047;-74
2023/06/26 07:35:44;;;;;;;4.18;1.50;;;;;;;;;;5091949;28;20040;-74
2023/06/26 07:38:10;;;;;;;4.07;1.50;;;;;;;;;;5090449;28;20063;-74
2023/06/26 07:40:36;;;;;;;5.82;1.60;;;;;;;;;;5092033;28;20044;-73
2023/06/26 07:43:02;;;;;;;3.90;1.52;;;;;;;;;;5090740;28;20040;-72
2023/06/26 07:45:28;;;;;;;6.25;1.85;;;;;;;;;;5090320;28;20052;-73
2023/06/26 07:47:54;;;;;;;8.32;2.00;;;;;;;;;;5091511;28;20046;-72
2023/06/26 07:50:22;;;;;;;8.85;1.80;;;;;;;;;;5094417;28;20094;-73
2023/06/26 07:52:49;;;;;;;13.93;2.53;;;;;;;;;;5081117;28;20113;-72
2023/06/26 07:55:15;;;;;;;8.82;1.80;;;;;;;;;;5094726;28;20500;-72
2023/06/26 07:57:41;;;;;;;6.43;1.70;;;;;;;;;;5094925;28;20384;-72
2023/06/26 08:00:07;;;;;;;5.95;1.85;;;;;;;;;;5094842;28;20040;-72
2023/06/26 08:02:33;;;;;;;5.97;1.65;;;;;;;;;;5077862;28;20044;-72
2023/06/26 08:04:59;;;;;;;5.13;1.90;;;;;;;;;;5094572;28;20036;-72
2023/06/26 08:07:26;;;;;;;3.67;1.60;;;;;;;;;;5094372;28;20610;-72
2023/06/26 08:09:52;;;;;;;6.60;1.80;;;;;;;;;;5094593;28;20044;-72
2023/06/26 08:12:18;;;;;;;4.88;1.80;;;;;;;;;;5094443;28;20044;-72
2023/06/26 08:14:44;;;;;;;7.90;2.10;;;;;;;;;;5094426;28;20040;-72
2023/06/26 08:17:10;;;;;;;13.02;2.50;;;;;;;;;;5094280;28;20129;-76
2023/06/26 08:19:36;;;;;;;9.00;2.20;;;;;;;;;;5095998;28;20040;-77
2023/06/26 08:22:03;;;;;;;12.20;1.98;;;;;;;;;;5094601;28;20390;-76
2023/06/26 08:24:29;;;;;;;8.35;1.80;;;;;;;;;;5095347;28;20097;-76
2023/06/26 08:26:55;;;;;;;5.85;1.90;;;;;;;;;;5077187;28;20043;-77
2023/06/26 08:29:21;;;;;;;8.40;1.98;;;;;;;;;;5093960;28;20051;-76
2023/06/26 08:31:47;;;;;;;16.40;2.20;;;;;;;;;;5094106;28;20040;-77
2023/06/26 08:34:13;;;;;;;5.45;1.90;;;;;;;;;;5076967;28;20036;-76
2023/06/26 08:36:39;;;;;;;9.85;2.50;;;;;;;;;;5077302;28;20048;-76
2023/06/26 08:39:05;;;;;;;16.75;2.30;;;;;;;;;;5077179;28;20048;-77
2023/06/26 08:41:32;;;;;;;7.32;2.33;;;;;;;;;;5094078;28;20399;-77
2023/06/26 08:43:58;;;;;;;6.05;2.15;;;;;;;;;;5095491;28;20419;-76
2023/06/26 08:46:24;;;;;;;7.20;2.50;;;;;;;;;;5094974;28;20503;-76
2023/06/26 08:48:55;;;;;;;5.47;2.10;;;;;;;;;;5093923;28;20580;-77
2023/06/26 08:51:25;;;;;;;4.70;1.95;;;;;;;;;;5093211;28;20048;-77
2023/06/26 08:53:58;;;;;;;4.55;2.25;;;;;;;;;;5093742;28;20076;-76
2023/06/26 08:56:25;;;;;;;10.20;2.40;;;;;;;;;;5094665;28;20032;-75
2023/06/26 08:58:51;;;;;;;6.30;2.25;;;;;;;;;;5093662;28;20043;-76
2023/06/26 09:01:18;;;;;;;27.23;2.97;;;;;;;;;;5094336;28;20480;-76
2023/06/26 09:03:45;;;;;;;5.22;2.00;;;;;;;;;;5093990;28;20485;-76
2023/06/26 09:06:11;;;;;;;41.30;4.90;;;;;;;;;;5093625;28;20504;-76
2023/06/26 09:08:37;;;;;;;4.18;2.20;;;;;;;;;;5093519;28;20492;-75
2023/06/26 09:11:03;;;;;;;8.50;2.70;;;;;;;;;;5093305;28;20123;-72
2023/06/26 09:13:30;;;;;;;8.60;2.20;;;;;;;;;;5094107;28;20040;-72
2023/06/26 09:15:57;;;;;;;8.43;2.20;;;;;;;;;;5076494;28;20087;-72
2023/06/26 09:18:23;;;;;;;6.95;2.15;;;;;;;;;;5092660;28;20036;-72
2023/06/26 09:20:50;;;;;;;6.75;2.40;;;;;;;;;;5094238;28;20048;-72
2023/06/26 09:23:16;;;;;;;14.15;3.13;;;;;;;;;;5094511;28;21242;-73
2023/06/26 09:25:44;;;;;;;6.57;2.20;;;;;;;;;;5093249;28;20069;-73
2023/06/26 09:28:10;;;;;;;12.25;2.63;;;;;;;;;;5094138;28;20044;-73
2023/06/26 09:30:36;;;;;;;4.40;2.13;;;;;;;;;;5094041;28;20036;-73
2023/06/26 09:33:23;;;;;;;5.28;2.10;;;;;;;;;;5093111;28;20051;-73
2023/06/26 09:35:49;;;;;;;8.73;1.98;;;;;;;;;;5093068;28;20115;-72
2023/06/26 09:38:15;;;;;;;9.40;2.40;;;;;;;;;;5092851;28;20075;-73
2023/06/26 09:40:41;;;;;;;8.35;2.35;;;;;;;;;;5092758;28;20343;-73
2023/06/26 09:43:13;;;;;;;9.43;2.60;;;;;;;;;;5092983;28;20043;-76
2023/06/26 09:45:40;;;;;;;9.15;2.80;;;;;;;;;;5093012;28;20040;-76
2023/06/26 09:48:08;;;;;;;6.43;2.60;;;;;;;;;;5093691;28;20055;-76
2023/06/26 09:50:34;;;;;;;7.18;2.53;;;;;;;;;;5093864;28;20044;-73
2023/06/26 09:53:09;;;;;;;13.52;3.00;;;;;;;;;;5076435;28;20048;-73
2023/06/26 09:55:36;;;;;;;8.00;2.67;;;;;;;;;;5094050;28;20043;-76
2023/06/26 09:58:03;;;;;;;25.27;3.40;;;;;;;;;;5094540;28;20089;-76
2023/06/26 10:00:29;;;;;;;15.68;2.80;;;;;;;;;;5092505;28;20096;-75
2023/06/26 10:02:55;;;;;;;10.68;2.90;;;;;;;;;;5092792;28;20040;-73
2023/06/26 10:05:21;;;;;;;11.35;2.50;;;;;;;;;;5092756;28;20086;-72
2023/06/26 10:07:48;;;;;;;8.80;2.40;;;;;;;;;;5093073;28;20036;-72
2023/06/26 10:10:16;;;;;;;8.15;2.47;;;;;;;;;;5092206;28;20123;-71
2023/06/26 10:12:45;;;;;;;11.30;2.53;;;;;;;;;;5091829;28;20039;-73
2023/06/26 10:15:13;;;;;;;9.50;2.42;;;;;;;;;;5092543;28;20443;-72
2023/06/26 10:17:43;;;;;;;6.93;2.15;;;;;;;;;;5092966;28;20040;-72
2023/06/26 10:20:09;;;;;;;10.13;2.28;;;;;;;;;;5093283;28;20516;-73
2023/06/26 10:22:40;;;;;;;11.30;2.28;;;;;;;;;;5091909;28;20044;-73
2023/06/26 10:25:07;;;;;;;9.60;2.20;;;;;;;;;;5092179;28;20125;-76
2023/06/26 10:27:36;;;;;;;7.47;2.22;;;;;;;;;;5075047;28;20055;-76
2023/06/26 10:30:07;;;;;;;16.23;2.88;;;;;;;;;;5079000;28;20048;-76
2023/06/26 10:32:33;;;;;;;6.60;1.88;;;;;;;;;;5092078;28;20082;-76
2023/06/26 10:35:02;;;;;;;7.75;1.88;;;;;;;;;;5091999;28;20047;-76
2023/06/26 10:37:42;;;;;;;18.58;2.20;;;;;;;;;;5091955;28;20040;-75
2023/06/26 10:40:09;;;;;;;12.02;2.08;;;;;;;;;;5092133;28;20385;-72
2023/06/26 10:42:36;;;;;;;14.13;2.28;;;;;;;;;;5077333;28;20104;-72
2023/06/26 10:45:15;;;;;;;15.13;2.45;;;;;;;;;;5091673;28;20040;-72
2023/06/26 10:47:42;;;;;;;7.40;2.17;;;;;;;;;;5091515;28;20078;-73
2023/06/26 10:50:20;;;;;;;17.67;2.63;;;;;;;;;;5074446;28;20047;-72
2023/06/26 10:52:46;;;;;;;7.28;2.20;;;;;;;;;;5077017;28;20040;-72
2023/06/26 10:55:14;;;;;;;12.68;2.30;;;;;;;;;;5092768;28;20515;-73
2023/06/26 10:57:45;;;;;;;9.43;2.80;;;;;;;;;;5092094;28;20092;-73
2023/06/26 11:00:11;;;;;;;8.30;2.28;;;;;;;;;;5091650;28;20515;-73
2023/06/26 11:02:50;;;;;;;11.57;1.95;;;;;;;;;;5073991;28;20032;-72
2023/06/26 11:05:27;;;;;;;8.55;1.92;;;;;;;;;;5092534;28;20036;-72
2023/06/26 11:08:11;;;;;;;7.97;1.92;;;;;;;;;;5090823;28;20036;-77
2023/06/26 11:11:01;;;;;;;8.10;1.88;;;;;;;;;;5074017;28;20058;-72
2023/06/26 11:13:27;;;;;;;6.93;1.80;;;;;;;;;;5079347;28;20040;-72
2023/06/26 11:15:56;;;;;;;5.65;1.50;;;;;;;;;;5090992;28;20473;-76
2023/06/26 11:18:23;;;;;;;16.05;2.00;;;;;;;;;;5091289;28;20148;-76
2023/06/26 11:20:49;;;;;;;5.80;1.52;;;;;;;;;;5091014;28;20493;-77
2023/06/26 11:23:20;;;;;;;6.25;1.63;;;;;;;;;;5073729;28;20043;-77
2023/06/26 11:25:46;;;;;;;5.05;1.40;;;;;;;;;;5090855;28;20039;-76
2023/06/26 11:28:12;;;;;;;7.18;1.77;;;;;;;;;;5092230;28;20081;-76
2023/06/26 11:30:41;;;;;;;10.45;1.52;;;;;;;;;;5084758;28;20056;-77
2023/06/26 11:33:08;;;;;;;8.10;1.60;;;;;;;;;;5083282;28;20050;-77
2023/06/26 11:35:34;;;;;;;7.30;1.77;;;;;;;;;;5090713;28;20074;-76
2023/06/26 11:38:04;;;;;;;6.10;1.38;;;;;;;;;;5092277;28;20057;-76
2023/06/26 11:40:31;;;;;;;13.40;1.75;;;;;;;;;;5091086;28;20058;-77
2023/06/26 11:43:00;;;;;;;7.90;1.55;;;;;;;;;;5091983;28;20043;-76
2023/06/26 11:45:29;;;;;;;12.32;1.83;;;;;;;;;;5091114;28;20040;-76
2023/06/26 11:47:56;;;;;;;8.40;1.67;;;;;;;;;;5090696;28;20043;-76
2023/06/26 11:50:22;;;;;;;14.07;1.88;;;;;;;;;;5091735;28;20112;-77
2023/06/26 11:52:58;;;;;;;6.85;1.60;;;;;;;;;;5078075;28;20087;-76
2023/06/26 11:55:25;;;;;;;5.90;1.80;;;;;;;;;;5091254;28;20055;-77
2023/06/26 11:57:53;;;;;;;7.57;1.60;;;;;;;;;;5073742;28;20071;-76
2023/06/26 12:00:19;;;;;;;9.93;1.60;;;;;;;;;;5090825;28;20051;-73
2023/06/26 12:02:46;;;;;;;11.13;1.90;;;;;;;;;;5091899;28;20028;-73
2023/06/26 12:05:13;;;;;;;13.43;1.80;;;;;;;;;;5090799;28;20040;-76
2023/06/26 12:07:40;;;;;;;10.73;1.70;;;;;;;;;;5091550;28;20101;-76
2023/06/26 12:10:07;;;;;;;18.50;2.45;;;;;;;;;;5073693;28;20040;-76
2023/06/26 12:12:33;;;;;;;15.77;1.80;;;;;;;;;;5090646;28;20037;-76
2023/06/26 12:15:00;;;;;;;11.60;1.67;;;;;;;;;;5090218;28;20067;-77
2023/06/26 12:17:26;;;;;;;9.35;1.75;;;;;;;;;;5092070;28;20044;-76
2023/06/26 12:19:53;;;;;;;9.68;1.40;;;;;;;;;;5091603;28;20040;-75
2023/06/26 12:22:19;;;;;;;16.27;1.70;;;;;;;;;;5073721;28;20039;-76
2023/06/26 12:24:46;;;;;;;11.00;1.75;;;;;;;;;;5090326;28;20044;-76
2023/06/26 12:27:13;;;;;;;9.68;1.65;;;;;;;;;;5090682;28;20438;-75
2023/06/26 12:29:40;;;;;;;7.80;1.60;;;;;;;;;;5073783;28;20487;-77
2023/06/26 12:32:10;;;;;;;14.77;2.13;;;;;;;;;;5089858;28;20036;-75
2023/06/26 12:34:37;;;;;;;16.58;2.08;;;;;;;;;;5090470;28;20081;-76
2023/06/26 12:37:05;;;;;;;8.02;1.60;;;;;;;;;;5093622;28;20282;-76
2023/06/26 12:39:45;;;;;;;16.40;1.90;;;;;;;;;;5077505;28;20040;-75
2023/06/26 12:42:13;;;;;;;16.30;2.00;;;;;;;;;;5093964;28;20170;-76
2023/06/26 12:44:39;;;;;;;7.72;1.60;;;;;;;;;;5094077;28;20040;-76
2023/06/26 12:47:07;;;;;;;9.98;1.60;;;;;;;;;;5093745;28;20040;-75
2023/06/26 12:49:40;;;;;;;8.70;1.55;;;;;;;;;;5093722;28;20113;-76
2023/06/26 12:52:07;;;;;;;9.95;1.33;;;;;;;;;;5093424;28;20048;-76
2023/06/26 12:54:34;;;;;;;38.72;3.35;;;;;;;;;;5094034;28;20043;-75
2023/06/26 12:57:00;;;;;;;7.75;1.17;;;;;;;;;;5093357;28;20032;-75
2023/06/26 12:59:26;;;;;;;6.60;1.20;;;;;;;;;;5076645;28;20170;-76
2023/06/26 13:01:52;;;;;;;16.20;2.00;;;;;;;;;;5093553;28;20145;-73
2023/06/26 13:04:18;;;;;;;16.83;1.98;;;;;;;;;;5094691;28;20123;-72
2023/06/26 13:06:44;;;;;;;15.52;2.10;;;;;;;;;;5093564;28;20085;-73
2023/06/26 13:09:11;;;;;;;9.40;1.60;;;;;;;;;;5092717;28;20058;-74
2023/06/26 13:11:38;;;;;;;14.25;1.80;;;;;;;;;;5093455;28;20066;-71
2023/06/26 13:14:04;;;;;;;12.35;2.40;;;;;;;;;;5093124;28;20050;-72
2023/06/26 13:16:30;;;;;;;12.23;1.80;;;;;;;;;;5093076;28;20040;-72
2023/06/26 13:18:58;;;;;;;11.13;1.70;;;;;;;;;;5076091;28;20044;-72
2023/06/26 13:21:24;;;;;;;6.40;1.80;;;;;;;;;;5093249;28;20051;-72
2023/06/26 13:23:50;;;;;;;6.45;1.73;;;;;;;;;;5076001;28;20052;-72
2023/06/26 13:26:16;;;;;;;10.73;1.90;;;;;;;;;;5076581;28;20055;-73
2023/06/26 13:28:43;;;;;;;4.93;1.60;;;;;;;;;;5093388;28;20460;-72
2023/06/26 13:31:09;;;;;;;15.68;2.00;;;;;;;;;;5094029;28;20036;-73
2023/06/26 13:33:35;;;;;;;14.00;1.90;;;;;;;;;;5093032;28;20036;-72
2023/06/26 13:36:04;;;;;;;10.30;1.80;;;;;;;;;;5092828;28;20048;-73
2023/06/26 13:38:31;;;;;;;11.25;1.63;;;;;;;;;;5092732;28;20044;-72
2023/06/26 13:40:58;;;;;;;11.50;1.75;;;;;;;;;;5093266;28;20475;-74
2023/06/26 13:43:24;;;;;;;15.38;1.92;;;;;;;;;;5076220;28;20048;-72
2023/06/26 13:45:50;;;;;;;14.93;2.20;;;;;;;;;;5093864;28;20170;-73
2023/06/26 13:48:16;;;;;;;21.20;2.45;;;;;;;;;;5092493;28;20055;-73
2023/06/26 13:50:42;;;;;;;5.60;1.38;;;;;;;;;;5075918;28;20400;-72
2023/06/26 13:53:08;;;;;;;5.97;1.50;;;;;;;;;;5092577;28;20552;-73
2023/06/26 13:55:35;;;;;;;11.38;1.63;;;;;;;;;;5092811;28;20046;-73
2023/06/26 13:58:05;;;;;;;8.07;1.52;;;;;;;;;;5075336;28;20086;-73
2023/06/26 14:00:33;;;;;;;14.35;2.08;;;;;;;;;;5076552;28;20496;-73
2023/06/26 14:02:59;;;;;;;20.88;2.28;;;;;;;;;;5092314;28;20044;-74
2023/06/26 14:05:25;;;;;;;7.43;1.52;;;;;;;;;;5075823;28;20055;-74
2023/06/26 14:07:51;;;;;;;14.48;1.98;;;;;;;;;;5093570;28;20414;-72
2023/06/26 14:10:17;;;;;;;5.72;1.50;;;;;;;;;;5092141;28;20408;-73
2023/06/26 14:12:43;;;;;;;25.85;2.13;;;;;;;;;;5092227;28;20035;-73
2023/06/26 14:15:10;;;;;;;13.40;1.90;;;;;;;;;;5093415;28;20046;-73
2023/06/26 14:17:39;;;;;;;5.80;1.30;;;;;;;;;;5092512;28;20051;-73
2023/06/26 14:20:09;;;;;;;7.32;1.63;;;;;;;;;;5091822;28;20040;-73
2023/06/26 14:22:35;;;;;;;16.65;2.20;;;;;;;;;;5075165;28;20040;-74
2023/06/26 14:25:01;;;;;;;8.85;1.50;;;;;;;;;;5091651;28;20040;-73
2023/06/26 14:27:27;;;;;;;7.80;1.40;;;;;;;;;;5093180;28;20040;-72
2023/06/26 14:29:53;;;;;;;18.92;1.95;;;;;;;;;;5075003;28;20044;-72
2023/06/26 14:32:19;;;;;;;20.40;1.95;;;;;;;;;;5057791;28;20119;-72